デンバー の空港の天気 - METARとTAF

デンバー国際空港 ( KDEN / DEN ) - アメリカ コロラド州デンバー
飛行場実況気象(Metar)
観測時間07/22 11:53 MDT (07/22 17:53 UTC)
風向・風速北北東 5m/s 瞬間風速8m/s
視程10km以上
天気現象
少しの雲 雲底高度 3050m
全天の4割程度の雲 雲底高度 4570m
全天の8割程度の雲 雲底高度 6710m
気温33.3℃
湿度23%
気圧1012.4hPa
METARKDEN 221753Z 02010G15KT 10SM FEW100 SCT150 BKN220 33/09 A3019 RMK AO2 SLP124 T03330094 10339 20200 51005
過去の天気等 Google飛行場航空写真 Wunderground天気予報

過去48時間のMETAR

飛行場予報(TAF)
発表時間: 7/22 11:31 MDT (7/22 17:31 UTC)
予報対象時間: 22日12時 MDT ~ 23日18時 MDT
風向・風速北北東 4m/s
視程10km以上
少しの雲 雲底高度 3050m
全天の4割程度の雲 雲底高度 4570m
全天の8割程度の雲 雲底高度 7620m
22日13時 MDT から
風向・風速北東 6m/s 瞬間風速 9m/s
視程10km以上
全天の4割程度の雲 雲底高度 3050m
全天の8割程度の雲 雲底高度 6710m
22日16時 MDT ~ 22日19時 MDT に一時的に
風向・風速不定 10m/s 瞬間風速 15m/s
天気現象弱い雷雨
全天の8割程度の積乱雲 雲底高度 2740m
22日20時 MDT から
風向・風速北 6m/s
視程10km以上
全天の4割程度の雲 雲底高度 2130m
全天の8割程度の雲 雲底高度 3050m
23日0時 MDT から
風向・風速北西 3m/s
視程10km以上
全天の4割程度の雲 雲底高度 1220m
全天を覆う雲 雲底高度 3050m
23日0時 MDT から 確率 30% で
天気現象弱い雷雨
全天の8割程度の積乱雲 雲底高度 910m
23日6時 MDT から
風向・風速北 3m/s
視程10km以上
天気現象弱いしゅう雨
全天の8割程度の雲 雲底高度 910m
全天を覆う雲 雲底高度 2130m
23日12時 MDT から
風向・風速北北東 4m/s
視程10km以上
全天の4割程度の雲 雲底高度 1220m
全天の8割程度の雲 雲底高度 1830m
KDEN 221731Z 2218/2324 03008KT P6SM FEW100 SCT150 BKN250
FM221900 04012G18KT P6SM SCT100 BKN220
TEMPO 2222/2301 VRB20G30KT -TSRA BKN090CB
FM230200 36012KT P6SM SCT070 BKN100
FM230600 32006KT P6SM SCT040 OVC100
PROB30 2306/2312 -TSRA BKN030CB
FM231200 01006KT P6SM -SHRA BKN030 OVC070
FM231800 03008KT P6SM SCT040 BKN060